sensor_id;sensor_type;location;lat;lon;timestamp;temperature;humidity
58513;DHT22;44302;47.914;10.642;2022-10-13T06:28:16;11.10;99.90
58513;DHT22;44302;47.914;10.642;2022-10-13T06:30:44;11.10;99.90
58513;DHT22;44302;47.914;10.642;2022-10-13T08:23:16;12.60;99.90
58513;DHT22;44302;47.914;10.642;2022-10-13T08:25:43;12.80;99.90
58513;DHT22;44302;47.914;10.642;2022-10-13T08:28:20;13.00;99.90
58513;DHT22;44302;47.914;10.642;2022-10-13T08:30:47;13.10;99.90
58513;DHT22;44302;47.914;10.642;2022-10-13T08:33:13;13.20;99.90
58513;DHT22;44302;47.914;10.642;2022-10-13T08:35:38;13.30;99.90
58513;DHT22;44302;47.914;10.642;2022-10-13T08:38:04;13.40;99.90
58513;DHT22;44302;47.914;10.642;2022-10-13T08:40:30;13.50;99.90
58513;DHT22;44302;47.914;10.642;2022-10-13T08:42:56;13.70;99.90
58513;DHT22;44302;47.914;10.642;2022-10-13T08:45:25;13.90;99.90
58513;DHT22;44302;47.914;10.642;2022-10-13T08:48:02;14.00;99.90
58513;DHT22;44302;47.914;10.642;2022-10-13T08:50:32;14.10;99.90
58513;DHT22;44302;47.914;10.642;2022-10-13T08:53:04;14.10;99.90
58513;DHT22;44302;47.914;10.642;2022-10-13T08:55:32;14.20;99.90
58513;DHT22;44302;47.914;10.642;2022-10-13T08:58:01;14.30;99.90
58513;DHT22;44302;47.914;10.642;2022-10-13T09:00:30;14.30;99.90
58513;DHT22;44302;47.914;10.642;2022-10-13T09:03:21;14.20;99.90
58513;DHT22;44302;47.914;10.642;2022-10-13T09:06:10;14.10;99.90
58513;DHT22;44302;47.914;10.642;2022-10-13T09:09:00;14.00;99.90
58513;DHT22;44302;47.914;10.642;2022-10-13T09:11:33;14.00;99.90
58513;DHT22;44302;47.914;10.642;2022-10-13T09:14:02;14.10;99.90
58513;DHT22;44302;47.914;10.642;2022-10-13T09:16:39;14.10;99.90
58513;DHT22;44302;47.914;10.642;2022-10-13T09:21:52;14.50;99.90
58513;DHT22;44302;47.914;10.642;2022-10-13T09:24:20;14.80;99.90
58513;DHT22;44302;47.914;10.642;2022-10-13T09:26:47;15.10;99.90
58513;DHT22;44302;47.914;10.642;2022-10-13T09:29:21;15.20;99.90
58513;DHT22;44302;47.914;10.642;2022-10-13T09:31:49;15.20;99.90
58513;DHT22;44302;47.914;10.642;2022-10-13T09:36:57;15.80;99.90
58513;DHT22;44302;47.914;10.642;2022-10-13T09:39:24;16.50;99.90
58513;DHT22;44302;47.914;10.642;2022-10-13T09:41:50;16.70;99.90
58513;DHT22;44302;47.914;10.642;2022-10-13T09:44:29;16.70;99.90
58513;DHT22;44302;47.914;10.642;2022-10-13T09:46:58;16.40;99.90
58513;DHT22;44302;47.914;10.642;2022-10-13T09:49:37;16.20;99.90
58513;DHT22;44302;47.914;10.642;2022-10-13T09:52:14;16.00;99.90
58513;DHT22;44302;47.914;10.642;2022-10-13T09:54:47;16.10;99.90
58513;DHT22;44302;47.914;10.642;2022-10-13T10:00:04;16.40;99.90
58513;DHT22;44302;47.914;10.642;2022-10-13T10:02:57;16.70;99.90
58513;DHT22;44302;47.914;10.642;2022-10-13T10:08:13;17.40;99.90
58513;DHT22;44302;47.914;10.642;2022-10-13T10:10:41;17.70;99.90
58513;DHT22;44302;47.914;10.642;2022-10-13T10:13:10;17.90;99.90
58513;DHT22;44302;47.914;10.642;2022-10-13T10:18:44;18.50;99.90
58513;DHT22;44302;47.914;10.642;2022-10-13T10:21:24;18.90;99.90
58513;DHT22;44302;47.914;10.642;2022-10-13T10:24:02;19.40;99.90
58513;DHT22;44302;47.914;10.642;2022-10-13T10:26:56;19.40;99.90
58513;DHT22;44302;47.914;10.642;2022-10-13T10:38:43;18.60;99.90
58513;DHT22;44302;47.914;10.642;2022-10-13T10:46:41;17.20;99.90
58513;DHT22;44302;47.914;10.642;2022-10-13T10:49:31;17.20;99.90
58513;DHT22;44302;47.914;10.642;2022-10-13T10:51:59;17.20;99.90
58513;DHT22;44302;47.914;10.642;2022-10-13T10:57:18;17.50;99.90
58513;DHT22;44302;47.914;10.642;2022-10-13T11:05:00;17.10;99.90
58513;DHT22;44302;47.914;10.642;2022-10-13T11:19:46;17.20;99.90
58513;DHT22;44302;47.914;10.642;2022-10-13T11:22:17;17.40;99.90
58513;DHT22;44302;47.914;10.642;2022-10-13T11:24:44;17.60;99.90
58513;DHT22;44302;47.914;10.642;2022-10-13T11:46:04;17.20;99.90
58513;DHT22;44302;47.914;10.642;2022-10-13T11:54:38;18.00;99.90
58513;DHT22;44302;47.914;10.642;2022-10-13T11:57:22;18.30;99.90
58513;DHT22;44302;47.914;10.642;2022-10-13T11:59:50;18.20;99.90
58513;DHT22;44302;47.914;10.642;2022-10-13T12:02:19;18.20;99.90
58513;DHT22;44302;47.914;10.642;2022-10-13T12:05:03;18.10;99.90
58513;DHT22;44302;47.914;10.642;2022-10-13T12:07:35;17.70;99.90
58513;DHT22;44302;47.914;10.642;2022-10-13T12:10:05;17.60;99.90
58513;DHT22;44302;47.914;10.642;2022-10-13T12:12:31;17.60;99.90
58513;DHT22;44302;47.914;10.642;2022-10-13T12:14:58;17.80;99.90
58513;DHT22;44302;47.914;10.642;2022-10-13T12:17:30;18.00;99.90
58513;DHT22;44302;47.914;10.642;2022-10-13T12:20:03;18.20;99.90
58513;DHT22;44302;47.914;10.642;2022-10-13T12:22:49;18.30;99.90
58513;DHT22;44302;47.914;10.642;2022-10-13T12:25:17;18.50;99.90
58513;DHT22;44302;47.914;10.642;2022-10-13T12:27:49;18.60;99.90
58513;DHT22;44302;47.914;10.642;2022-10-13T12:30:27;18.40;99.90
58513;DHT22;44302;47.914;10.642;2022-10-13T12:32:55;18.00;99.90
58513;DHT22;44302;47.914;10.642;2022-10-13T12:35:27;17.80;99.90
58513;DHT22;44302;47.914;10.642;2022-10-13T12:37:54;17.70;99.90
58513;DHT22;44302;47.914;10.642;2022-10-13T12:40:20;17.60;99.90
58513;DHT22;44302;47.914;10.642;2022-10-13T12:42:47;17.70;99.90
58513;DHT22;44302;47.914;10.642;2022-10-13T12:45:16;17.70;99.90
58513;DHT22;44302;47.914;10.642;2022-10-13T12:55:21;18.10;99.90
58513;DHT22;44302;47.914;10.642;2022-10-13T12:57:49;18.20;99.90
58513;DHT22;44302;47.914;10.642;2022-10-13T13:03:01;17.90;99.90
58513;DHT22;44302;47.914;10.642;2022-10-13T13:05:35;17.70;99.90
58513;DHT22;44302;47.914;10.642;2022-10-13T13:08:03;17.60;99.90
58513;DHT22;44302;47.914;10.642;2022-10-13T13:10:30;17.60;99.90
58513;DHT22;44302;47.914;10.642;2022-10-13T13:12:59;17.70;99.90
58513;DHT22;44302;47.914;10.642;2022-10-13T13:15:37;18.00;99.90
58513;DHT22;44302;47.914;10.642;2022-10-13T13:20:50;18.00;99.90
58513;DHT22;44302;47.914;10.642;2022-10-13T13:23:16;17.90;99.90
58513;DHT22;44302;47.914;10.642;2022-10-13T13:25:45;17.70;99.90
58513;DHT22;44302;47.914;10.642;2022-10-13T13:28:13;17.70;99.90
58513;DHT22;44302;47.914;10.642;2022-10-13T13:30:39;17.50;99.90
58513;DHT22;44302;47.914;10.642;2022-10-13T13:33:06;17.30;99.90
58513;DHT22;44302;47.914;10.642;2022-10-13T13:35:32;17.10;99.90
58513;DHT22;44302;47.914;10.642;2022-10-13T13:37:58;17.10;99.90
58513;DHT22;44302;47.914;10.642;2022-10-13T13:40:26;17.10;99.90
58513;DHT22;44302;47.914;10.642;2022-10-13T13:42:52;17.00;99.90
58513;DHT22;44302;47.914;10.642;2022-10-13T13:45:20;17.00;99.90
58513;DHT22;44302;47.914;10.642;2022-10-13T13:47:46;17.00;99.90
58513;DHT22;44302;47.914;10.642;2022-10-13T13:50:24;17.00;99.90
58513;DHT22;44302;47.914;10.642;2022-10-13T13:52:50;16.90;99.90
58513;DHT22;44302;47.914;10.642;2022-10-13T13:55:16;16.80;99.90
58513;DHT22;44302;47.914;10.642;2022-10-13T13:57:42;16.90;99.90
58513;DHT22;44302;47.914;10.642;2022-10-13T14:00:11;16.80;99.90
58513;DHT22;44302;47.914;10.642;2022-10-13T14:02:37;16.80;99.90
58513;DHT22;44302;47.914;10.642;2022-10-13T14:05:02;16.70;99.90
58513;DHT22;44302;47.914;10.642;2022-10-13T14:07:29;16.70;99.90
58513;DHT22;44302;47.914;10.642;2022-10-13T14:09:55;16.60;99.90
58513;DHT22;44302;47.914;10.642;2022-10-13T14:12:20;16.60;99.90
58513;DHT22;44302;47.914;10.642;2022-10-13T14:14:46;16.50;99.90
58513;DHT22;44302;47.914;10.642;2022-10-13T14:17:12;16.40;99.90
58513;DHT22;44302;47.914;10.642;2022-10-13T14:19:37;16.30;99.90
58513;DHT22;44302;47.914;10.642;2022-10-13T14:22:03;16.20;99.90
58513;DHT22;44302;47.914;10.642;2022-10-13T14:24:29;16.20;99.90
58513;DHT22;44302;47.914;10.642;2022-10-13T14:26:55;16.20;99.90
58513;DHT22;44302;47.914;10.642;2022-10-13T14:29:20;16.10;99.90
58513;DHT22;44302;47.914;10.642;2022-10-13T14:31:46;16.10;99.90
58513;DHT22;44302;47.914;10.642;2022-10-13T14:34:12;16.00;99.90
58513;DHT22;44302;47.914;10.642;2022-10-13T14:36:37;16.00;99.90
58513;DHT22;44302;47.914;10.642;2022-10-13T14:39:03;15.90;99.90
58513;DHT22;44302;47.914;10.642;2022-10-13T14:41:29;15.80;99.90
58513;DHT22;44302;47.914;10.642;2022-10-13T14:43:55;15.80;99.90
58513;DHT22;44302;47.914;10.642;2022-10-13T14:46:22;15.70;99.90
58513;DHT22;44302;47.914;10.642;2022-10-13T14:48:48;15.70;99.90
58513;DHT22;44302;47.914;10.642;2022-10-13T14:51:14;15.60;99.90
58513;DHT22;44302;47.914;10.642;2022-10-13T14:53:42;15.60;99.90
58513;DHT22;44302;47.914;10.642;2022-10-13T14:56:28;15.50;99.90
58513;DHT22;44302;47.914;10.642;2022-10-13T14:58:59;15.50;99.90
58513;DHT22;44302;47.914;10.642;2022-10-13T15:01:25;15.60;99.90
58513;DHT22;44302;47.914;10.642;2022-10-13T15:03:51;15.60;99.90
58513;DHT22;44302;47.914;10.642;2022-10-13T15:06:19;15.50;99.90
58513;DHT22;44302;47.914;10.642;2022-10-13T15:08:46;15.50;99.90
58513;DHT22;44302;47.914;10.642;2022-10-13T15:11:12;15.60;99.90
58513;DHT22;44302;47.914;10.642;2022-10-13T15:13:39;15.60;99.90
58513;DHT22;44302;47.914;10.642;2022-10-13T15:16:06;15.60;99.90
58513;DHT22;44302;47.914;10.642;2022-10-13T15:18:33;15.70;99.90
58513;DHT22;44302;47.914;10.642;2022-10-13T15:21:00;15.70;99.90
58513;DHT22;44302;47.914;10.642;2022-10-13T15:23:26;15.70;99.90
58513;DHT22;44302;47.914;10.642;2022-10-13T15:25:56;15.60;99.90
58513;DHT22;44302;47.914;10.642;2022-10-13T15:28:33;15.60;99.90
58513;DHT22;44302;47.914;10.642;2022-10-13T15:30:58;15.60;99.90
58513;DHT22;44302;47.914;10.642;2022-10-13T15:33:24;15.60;99.90
58513;DHT22;44302;47.914;10.642;2022-10-13T15:35:51;15.60;99.90
58513;DHT22;44302;47.914;10.642;2022-10-13T15:38:18;15.50;99.90
58513;DHT22;44302;47.914;10.642;2022-10-13T15:40:44;15.50;99.90
58513;DHT22;44302;47.914;10.642;2022-10-13T15:43:10;15.40;99.90
58513;DHT22;44302;47.914;10.642;2022-10-13T15:45:36;15.40;99.90
58513;DHT22;44302;47.914;10.642;2022-10-13T15:48:05;15.30;99.90
58513;DHT22;44302;47.914;10.642;2022-10-13T15:50:31;15.20;99.90
58513;DHT22;44302;47.914;10.642;2022-10-13T15:52:57;15.20;99.90
58513;DHT22;44302;47.914;10.642;2022-10-13T15:55:23;15.20;99.90
58513;DHT22;44302;47.914;10.642;2022-10-13T15:57:49;15.10;99.90
58513;DHT22;44302;47.914;10.642;2022-10-13T16:00:15;15.10;99.90
58513;DHT22;44302;47.914;10.642;2022-10-13T16:02:42;15.00;99.90
58513;DHT22;44302;47.914;10.642;2022-10-13T16:05:10;15.00;99.90
58513;DHT22;44302;47.914;10.642;2022-10-13T16:07:37;15.00;99.90
58513;DHT22;44302;47.914;10.642;2022-10-13T16:10:04;14.90;99.90
58513;DHT22;44302;47.914;10.642;2022-10-13T16:12:30;14.90;99.90
58513;DHT22;44302;47.914;10.642;2022-10-13T16:14:56;14.90;99.90
58513;DHT22;44302;47.914;10.642;2022-10-13T16:17:22;14.80;99.90
58513;DHT22;44302;47.914;10.642;2022-10-13T16:19:47;14.80;99.90
58513;DHT22;44302;47.914;10.642;2022-10-13T16:22:13;14.80;99.90
58513;DHT22;44302;47.914;10.642;2022-10-13T16:24:39;14.80;99.90
58513;DHT22;44302;47.914;10.642;2022-10-13T16:27:05;14.70;99.90
58513;DHT22;44302;47.914;10.642;2022-10-13T16:29:31;14.60;99.90
58513;DHT22;44302;47.914;10.642;2022-10-13T16:31:57;14.50;99.90
58513;DHT22;44302;47.914;10.642;2022-10-13T16:34:22;14.50;99.90
58513;DHT22;44302;47.914;10.642;2022-10-13T16:36:48;14.40;99.90
58513;DHT22;44302;47.914;10.642;2022-10-13T16:39:15;14.30;99.90
58513;DHT22;44302;47.914;10.642;2022-10-13T16:41:42;14.30;99.90
58513;DHT22;44302;47.914;10.642;2022-10-13T16:44:12;14.20;99.90
58513;DHT22;44302;47.914;10.642;2022-10-13T16:46:38;14.20;99.90
58513;DHT22;44302;47.914;10.642;2022-10-13T16:49:07;14.20;99.90
58513;DHT22;44302;47.914;10.642;2022-10-13T16:51:34;14.10;99.90
58513;DHT22;44302;47.914;10.642;2022-10-13T16:53:59;14.10;99.90
58513;DHT22;44302;47.914;10.642;2022-10-13T16:56:26;14.00;99.90
58513;DHT22;44302;47.914;10.642;2022-10-13T16:58:57;14.00;99.90
58513;DHT22;44302;47.914;10.642;2022-10-13T17:01:25;13.90;99.90
58513;DHT22;44302;47.914;10.642;2022-10-13T17:03:51;13.90;99.90
58513;DHT22;44302;47.914;10.642;2022-10-13T17:06:19;13.80;99.90
58513;DHT22;44302;47.914;10.642;2022-10-13T17:08:46;13.80;99.90
58513;DHT22;44302;47.914;10.642;2022-10-13T17:11:20;13.90;99.90
58513;DHT22;44302;47.914;10.642;2022-10-13T17:13:46;13.80;99.90
58513;DHT22;44302;47.914;10.642;2022-10-13T17:16:11;13.80;99.90
58513;DHT22;44302;47.914;10.642;2022-10-13T17:18:38;13.80;99.90
58513;DHT22;44302;47.914;10.642;2022-10-13T17:21:05;13.80;99.90
58513;DHT22;44302;47.914;10.642;2022-10-13T17:23:33;13.80;99.90
58513;DHT22;44302;47.914;10.642;2022-10-13T17:26:02;13.80;99.90
58513;DHT22;44302;47.914;10.642;2022-10-13T17:28:28;13.80;99.90
58513;DHT22;44302;47.914;10.642;2022-10-13T17:33:24;13.80;99.90
58513;DHT22;44302;47.914;10.642;2022-10-13T17:35:50;13.80;99.90
58513;DHT22;44302;47.914;10.642;2022-10-13T17:38:16;13.70;99.90
58513;DHT22;44302;47.914;10.642;2022-10-13T17:40:42;13.70;99.90
58513;DHT22;44302;47.914;10.642;2022-10-13T17:43:07;13.60;99.90
58513;DHT22;44302;47.914;10.642;2022-10-13T17:45:33;13.60;99.90
58513;DHT22;44302;47.914;10.642;2022-10-13T17:47:59;13.60;99.90
58513;DHT22;44302;47.914;10.642;2022-10-13T17:50:24;13.60;99.90
58513;DHT22;44302;47.914;10.642;2022-10-13T17:52:52;13.60;99.90
58513;DHT22;44302;47.914;10.642;2022-10-13T17:55:18;13.60;99.90
58513;DHT22;44302;47.914;10.642;2022-10-13T17:57:43;13.60;99.90
58513;DHT22;44302;47.914;10.642;2022-10-13T18:00:09;13.60;99.90
58513;DHT22;44302;47.914;10.642;2022-10-13T18:02:35;13.50;99.90
58513;DHT22;44302;47.914;10.642;2022-10-13T18:05:01;13.50;99.90
58513;DHT22;44302;47.914;10.642;2022-10-13T18:07:27;13.40;99.90
58513;DHT22;44302;47.914;10.642;2022-10-13T18:09:52;13.40;99.90
58513;DHT22;44302;47.914;10.642;2022-10-13T18:12:18;13.40;99.90
58513;DHT22;44302;47.914;10.642;2022-10-13T18:14:44;13.40;99.90
58513;DHT22;44302;47.914;10.642;2022-10-13T18:17:10;13.40;99.90
58513;DHT22;44302;47.914;10.642;2022-10-13T18:19:36;13.30;99.90
58513;DHT22;44302;47.914;10.642;2022-10-13T18:22:01;13.30;99.90
58513;DHT22;44302;47.914;10.642;2022-10-13T18:24:27;13.30;99.90
58513;DHT22;44302;47.914;10.642;2022-10-13T18:26:53;13.30;99.90
58513;DHT22;44302;47.914;10.642;2022-10-13T18:29:19;13.30;99.90
58513;DHT22;44302;47.914;10.642;2022-10-13T18:31:45;13.30;99.90
58513;DHT22;44302;47.914;10.642;2022-10-13T18:34:15;13.30;99.90
58513;DHT22;44302;47.914;10.642;2022-10-13T18:36:43;13.30;99.90
58513;DHT22;44302;47.914;10.642;2022-10-13T18:39:13;13.30;99.90
58513;DHT22;44302;47.914;10.642;2022-10-13T18:41:40;13.20;99.90
58513;DHT22;44302;47.914;10.642;2022-10-13T18:44:07;13.20;99.90
58513;DHT22;44302;47.914;10.642;2022-10-13T18:46:35;13.20;99.90
58513;DHT22;44302;47.914;10.642;2022-10-13T18:49:02;13.20;99.90
58513;DHT22;44302;47.914;10.642;2022-10-13T18:51:27;13.10;99.90
58513;DHT22;44302;47.914;10.642;2022-10-13T18:53:55;13.10;99.90
58513;DHT22;44302;47.914;10.642;2022-10-13T18:56:23;13.00;99.90
58513;DHT22;44302;47.914;10.642;2022-10-13T18:58:50;13.00;99.90
58513;DHT22;44302;47.914;10.642;2022-10-13T19:01:20;13.00;99.90
58513;DHT22;44302;47.914;10.642;2022-10-13T19:03:47;13.00;99.90
58513;DHT22;44302;47.914;10.642;2022-10-13T19:06:14;13.00;99.90
58513;DHT22;44302;47.914;10.642;2022-10-13T19:08:41;13.00;99.90
58513;DHT22;44302;47.914;10.642;2022-10-13T19:11:15;13.00;99.90
58513;DHT22;44302;47.914;10.642;2022-10-13T19:13:41;13.00;99.90
58513;DHT22;44302;47.914;10.642;2022-10-13T19:16:07;13.10;99.90
58513;DHT22;44302;47.914;10.642;2022-10-13T19:18:34;13.10;99.90
58513;DHT22;44302;47.914;10.642;2022-10-13T19:20:59;13.10;99.90
58513;DHT22;44302;47.914;10.642;2022-10-13T19:23:25;13.00;99.90
58513;DHT22;44302;47.914;10.642;2022-10-13T19:25:51;13.00;99.90
58513;DHT22;44302;47.914;10.642;2022-10-13T19:28:17;13.00;99.90
58513;DHT22;44302;47.914;10.642;2022-10-13T19:30:43;13.00;99.90
58513;DHT22;44302;47.914;10.642;2022-10-13T19:33:10;13.10;99.90
58513;DHT22;44302;47.914;10.642;2022-10-13T19:35:41;13.00;99.90
58513;DHT22;44302;47.914;10.642;2022-10-13T19:38:07;13.00;99.90
58513;DHT22;44302;47.914;10.642;2022-10-13T19:40:32;13.00;99.90
58513;DHT22;44302;47.914;10.642;2022-10-13T19:42:58;13.00;99.90
58513;DHT22;44302;47.914;10.642;2022-10-13T19:45:24;12.90;99.90
58513;DHT22;44302;47.914;10.642;2022-10-13T19:47:50;12.90;99.90
58513;DHT22;44302;47.914;10.642;2022-10-13T19:50:15;12.90;99.90
58513;DHT22;44302;47.914;10.642;2022-10-13T19:52:41;12.90;99.90
58513;DHT22;44302;47.914;10.642;2022-10-13T19:55:07;12.90;99.90
58513;DHT22;44302;47.914;10.642;2022-10-13T19:57:33;12.80;99.90
58513;DHT22;44302;47.914;10.642;2022-10-13T19:59:59;12.80;99.90
58513;DHT22;44302;47.914;10.642;2022-10-13T20:02:25;12.80;99.90
58513;DHT22;44302;47.914;10.642;2022-10-13T20:04:50;12.80;99.90
58513;DHT22;44302;47.914;10.642;2022-10-13T20:07:16;12.80;99.90
58513;DHT22;44302;47.914;10.642;2022-10-13T20:09:42;12.80;99.90
58513;DHT22;44302;47.914;10.642;2022-10-13T20:12:08;12.80;99.90
58513;DHT22;44302;47.914;10.642;2022-10-13T20:14:34;12.90;99.90
58513;DHT22;44302;47.914;10.642;2022-10-13T20:17:00;12.90;99.90
58513;DHT22;44302;47.914;10.642;2022-10-13T20:19:26;12.90;99.90
58513;DHT22;44302;47.914;10.642;2022-10-13T20:21:51;12.90;99.90
58513;DHT22;44302;47.914;10.642;2022-10-13T20:24:19;12.80;99.90
58513;DHT22;44302;47.914;10.642;2022-10-13T20:26:45;12.80;99.90
58513;DHT22;44302;47.914;10.642;2022-10-13T20:29:11;12.80;99.90
58513;DHT22;44302;47.914;10.642;2022-10-13T20:31:37;12.80;99.90
58513;DHT22;44302;47.914;10.642;2022-10-13T20:34:03;12.80;99.90
58513;DHT22;44302;47.914;10.642;2022-10-13T20:36:28;12.80;99.90
58513;DHT22;44302;47.914;10.642;2022-10-13T20:38:54;12.70;99.90
58513;DHT22;44302;47.914;10.642;2022-10-13T20:41:23;12.70;99.90
58513;DHT22;44302;47.914;10.642;2022-10-13T20:43:50;12.80;99.90
58513;DHT22;44302;47.914;10.642;2022-10-13T20:46:18;12.80;99.90
58513;DHT22;44302;47.914;10.642;2022-10-13T20:48:45;12.80;99.90
58513;DHT22;44302;47.914;10.642;2022-10-13T20:51:13;12.80;99.90
58513;DHT22;44302;47.914;10.642;2022-10-13T20:53:41;12.70;99.90
58513;DHT22;44302;47.914;10.642;2022-10-13T20:56:11;12.80;99.90
58513;DHT22;44302;47.914;10.642;2022-10-13T20:58:39;12.80;99.90
58513;DHT22;44302;47.914;10.642;2022-10-13T21:01:05;12.70;99.90
58513;DHT22;44302;47.914;10.642;2022-10-13T21:03:30;12.70;99.90
58513;DHT22;44302;47.914;10.642;2022-10-13T21:05:57;12.70;99.90
58513;DHT22;44302;47.914;10.642;2022-10-13T21:08:22;12.60;99.90
58513;DHT22;44302;47.914;10.642;2022-10-13T21:10:49;12.40;99.90
58513;DHT22;44302;47.914;10.642;2022-10-13T21:13:15;12.40;99.90
58513;DHT22;44302;47.914;10.642;2022-10-13T21:15:42;12.30;99.90
58513;DHT22;44302;47.914;10.642;2022-10-13T21:18:09;12.20;99.90
58513;DHT22;44302;47.914;10.642;2022-10-13T21:20:36;12.20;99.90
58513;DHT22;44302;47.914;10.642;2022-10-13T21:23:04;12.20;99.90
58513;DHT22;44302;47.914;10.642;2022-10-13T21:25:30;12.10;99.90
58513;DHT22;44302;47.914;10.642;2022-10-13T21:27:56;12.00;99.90
58513;DHT22;44302;47.914;10.642;2022-10-13T21:30:23;11.90;99.90
58513;DHT22;44302;47.914;10.642;2022-10-13T21:32:49;11.90;99.90
58513;DHT22;44302;47.914;10.642;2022-10-13T21:35:15;11.80;99.90
58513;DHT22;44302;47.914;10.642;2022-10-13T21:37:41;11.80;99.90
58513;DHT22;44302;47.914;10.642;2022-10-13T21:40:07;11.70;99.90
58513;DHT22;44302;47.914;10.642;2022-10-13T21:42:34;11.60;99.90
58513;DHT22;44302;47.914;10.642;2022-10-13T21:45:00;11.60;99.90
58513;DHT22;44302;47.914;10.642;2022-10-13T21:47:32;11.60;99.90
58513;DHT22;44302;47.914;10.642;2022-10-13T21:49:59;11.60;99.90
58513;DHT22;44302;47.914;10.642;2022-10-13T21:52:25;11.60;99.90
58513;DHT22;44302;47.914;10.642;2022-10-13T21:54:51;11.60;99.90
58513;DHT22;44302;47.914;10.642;2022-10-13T21:57:18;11.60;99.90
58513;DHT22;44302;47.914;10.642;2022-10-13T21:59:45;11.60;99.90
58513;DHT22;44302;47.914;10.642;2022-10-13T22:02:10;11.60;99.90
58513;DHT22;44302;47.914;10.642;2022-10-13T22:04:36;11.60;99.90
58513;DHT22;44302;47.914;10.642;2022-10-13T22:07:02;11.60;99.90
58513;DHT22;44302;47.914;10.642;2022-10-13T22:09:28;11.50;99.90
